CheckWX is a tool to help pilots better visualize weather data.  It is not intended as a substitute for an official pre-flight weather briefing.

12:32:53 UTC

HEMA METAR
Marsa Alam International Airport
Marsa Alam, Egypt
Current

33 mins ago

HEMA 181200Z 01015KT CAVOK 21/03 Q1016 NOSIG
Observed
Feb-18 @ 12:00 UTC
Wind
  • 010° at 15 KTS
Visibility
10,000+ meters
Flight Rules
VFR
Cloud Levels
  • Clear skies
Temperature
21°C / 70°F
Dewpoint
C / 37°F
Humidity
31%
Altimeter
30" Hg
Pressure
1015.92 hPa
Previous

2 hours ago

HEMA 181100Z 01017KT CAVOK 21/01 Q1016 NOSIG
Observed
Feb-18 @ 11:00 UTC
Wind
  • 010° at 17 KTS
Visibility
10,000+ meters
Flight Rules
VFR
Cloud Levels
  • Clear skies
Temperature
21°C / 70°F
Dewpoint
C / 34°F
Humidity
27%
Altimeter
30" Hg
Pressure
1015.92 hPa
Previous

3 hours ago

HEMA 181000Z 01016KT CAVOK 21/M01 Q1017 NOSIG
Observed
Feb-18 @ 10:00 UTC
Wind
  • 010° at 16 KTS
Visibility
10,000+ meters
Flight Rules
VFR
Cloud Levels
  • Clear skies
Temperature
21°C / 70°F
Dewpoint
-1°C / 30°F
Humidity
23%
Altimeter
30.03" Hg
Pressure
1016.92 hPa